createdAt,value
2018-09-05T00:56:58.657Z,99.90
2018-09-05T00:59:29.875Z,99.90
2018-09-05T01:01:58.502Z,99.90
2018-09-05T01:04:28.125Z,99.90
2018-09-05T01:06:57.123Z,99.90
2018-09-05T01:09:26.443Z,99.90
2018-09-05T01:11:54.865Z,99.90
2018-09-05T01:14:24.234Z,99.90
2018-09-05T01:16:52.940Z,99.90
2018-09-05T01:19:21.823Z,99.90
2018-09-05T01:21:50.442Z,99.90
2018-09-05T01:24:20.701Z,99.90
2018-09-05T01:26:49.572Z,99.90
2018-09-05T01:29:18.150Z,99.90
2018-09-05T01:31:46.957Z,99.90
2018-09-05T01:34:15.711Z,99.90
2018-09-05T01:36:44.542Z,99.90
2018-09-05T01:39:45.537Z,99.90
2018-09-05T01:42:14.463Z,99.90
2018-09-05T01:44:44.611Z,99.90
2018-09-05T01:47:13.518Z,99.90
2018-09-05T01:49:42.501Z,99.90
2018-09-05T01:52:11.207Z,99.90
2018-09-05T01:54:45.511Z,99.90
2018-09-05T01:57:14.383Z,99.90
2018-09-05T01:59:43.118Z,99.90
2018-09-05T02:02:13.617Z,99.90
2018-09-05T02:04:42.771Z,99.90
2018-09-05T02:07:11.192Z,99.90
2018-09-05T02:09:40.184Z,99.90
2018-09-05T02:12:11.898Z,99.90
2018-09-05T02:14:41.099Z,99.90
2018-09-05T02:17:09.671Z,99.90
2018-09-05T02:19:38.528Z,99.90
2018-09-05T02:22:07.164Z,99.90
2018-09-05T02:24:38.447Z,99.90
2018-09-05T02:27:07.783Z,99.90
2018-09-05T02:29:36.198Z,99.90
2018-09-05T02:32:05.166Z,99.90
2018-09-05T02:34:33.767Z,99.90
2018-09-05T02:37:03.411Z,99.90
2018-09-05T02:39:32.511Z,99.90
2018-09-05T02:42:01.126Z,99.90
2018-09-05T02:44:30.002Z,99.90
2018-09-05T02:46:59.458Z,99.90
2018-09-05T02:49:28.568Z,99.90
2018-09-05T02:51:58.110Z,99.90
2018-09-05T02:54:27.485Z,99.90
2018-09-05T02:56:56.024Z,99.90
2018-09-05T02:59:25.575Z,99.90
2018-09-05T03:01:54.329Z,99.90
2018-09-05T03:04:23.108Z,99.90
2018-09-05T03:06:51.857Z,99.90
2018-09-05T03:09:21.443Z,99.90
2018-09-05T03:11:51.835Z,99.90
2018-09-05T03:14:20.238Z,99.90
2018-09-05T03:16:49.752Z,99.90
2018-09-05T03:19:19.468Z,99.90
2018-09-05T03:21:47.901Z,99.90
2018-09-05T03:24:16.652Z,99.90
2018-09-05T03:26:45.420Z,99.90
2018-09-05T03:29:14.510Z,99.90
2018-09-05T03:31:44.217Z,99.90
2018-09-05T03:34:14.860Z,99.90
2018-09-05T03:36:43.508Z,99.90
2018-09-05T03:39:12.792Z,99.90
2018-09-05T03:41:42.247Z,99.90
2018-09-05T03:44:11.130Z,99.90
2018-09-05T03:46:39.668Z,99.90
2018-09-05T03:49:08.256Z,99.90
2018-09-05T03:51:36.642Z,99.90
2018-09-05T03:54:05.740Z,99.90
2018-09-05T03:56:34.955Z,99.90
2018-09-05T03:59:03.792Z,99.90
2018-09-05T04:01:32.522Z,99.90
2018-09-05T04:04:01.580Z,99.90
2018-09-05T04:06:30.562Z,99.90
2018-09-05T04:09:01.132Z,99.90
2018-09-05T04:11:30.576Z,99.90
2018-09-05T04:13:59.121Z,99.90
2018-09-05T04:16:28.072Z,99.90
2018-09-05T04:18:57.129Z,99.90
2018-09-05T04:21:26.258Z,99.90
2018-09-05T04:23:55.175Z,99.90
2018-09-05T04:26:24.107Z,99.90
2018-09-05T04:28:52.552Z,99.90
2018-09-05T04:31:25.138Z,99.90
2018-09-05T04:33:54.134Z,99.90
2018-09-05T04:36:22.817Z,99.90
2018-09-05T04:38:52.642Z,99.90
2018-09-05T04:41:21.665Z,99.90
2018-09-05T04:43:51.255Z,99.90
2018-09-05T04:46:21.456Z,99.90
2018-09-05T04:48:50.209Z,99.90
2018-09-05T04:51:18.908Z,99.90
2018-09-05T04:53:48.529Z,99.90
2018-09-05T04:56:17.412Z,99.90
2018-09-05T04:58:46.419Z,99.90
2018-09-05T05:01:14.982Z,99.90
2018-09-05T05:03:44.228Z,99.90
2018-09-05T05:06:13.190Z,99.90
2018-09-05T05:08:42.337Z,99.90
2018-09-05T05:11:11.840Z,99.90
2018-09-05T05:13:40.799Z,99.90
2018-09-05T05:16:09.870Z,99.90
2018-09-05T05:18:38.659Z,99.90
2018-09-05T05:21:07.408Z,99.90
2018-09-05T05:23:37.299Z,99.90
2018-09-05T05:26:06.116Z,99.90
2018-09-05T05:28:35.484Z,99.90
2018-09-05T05:31:06.299Z,99.90
2018-09-05T05:33:35.768Z,99.90
2018-09-05T05:36:05.520Z,99.90
2018-09-05T05:38:34.487Z,99.90
2018-09-05T05:41:03.744Z,99.90
2018-09-05T05:43:32.558Z,99.90
2018-09-05T05:46:01.164Z,99.90
2018-09-05T05:48:29.894Z,99.90
2018-09-05T05:51:00.078Z,99.90
2018-09-05T05:53:35.080Z,99.90
2018-09-05T05:56:04.068Z,99.90
2018-09-05T05:58:33.142Z,99.90
2018-09-05T06:01:02.477Z,99.90
2018-09-05T06:03:31.649Z,99.90
2018-09-05T06:06:00.499Z,99.90
2018-09-05T06:08:29.492Z,99.90
2018-09-05T06:10:58.930Z,99.90
2018-09-05T06:13:29.787Z,99.90
2018-09-05T06:16:02.628Z,99.90
2018-09-05T06:18:32.529Z,99.90
2018-09-05T06:21:01.259Z,99.90
2018-09-05T06:23:29.897Z,99.90
2018-09-05T06:25:58.388Z,99.90
2018-09-05T06:28:28.579Z,99.90
2018-09-05T06:30:57.663Z,99.90
2018-09-05T06:33:27.282Z,99.90
2018-09-05T06:35:56.332Z,99.90
2018-09-05T06:38:25.958Z,99.90
2018-09-05T06:40:54.952Z,99.90
2018-09-05T06:43:24.389Z,99.90
2018-09-05T06:45:53.605Z,99.90
2018-09-05T06:48:24.202Z,99.90
2018-09-05T06:50:57.805Z,99.90
2018-09-05T06:53:30.671Z,99.90
2018-09-05T06:56:01.193Z,99.90
2018-09-05T06:58:35.600Z,99.90
2018-09-05T07:01:08.566Z,99.90
2018-09-05T07:03:37.620Z,99.90
2018-09-05T07:06:06.653Z,99.90
2018-09-05T07:08:36.070Z,99.90
2018-09-05T07:11:06.378Z,99.90
2018-09-05T07:13:35.187Z,99.90
2018-09-05T07:16:05.180Z,99.90
2018-09-05T07:18:35.207Z,99.90
2018-09-05T07:21:06.857Z,99.90
2018-09-05T07:23:38.718Z,99.90
2018-09-05T07:26:07.580Z,99.90
2018-09-05T07:28:36.318Z,99.90
2018-09-05T07:31:05.068Z,99.90
2018-09-05T07:33:34.900Z,99.90
2018-09-05T07:36:04.017Z,99.90
2018-09-05T07:38:34.125Z,99.90
2018-09-05T07:41:02.830Z,99.90
2018-09-05T07:43:31.613Z,99.90
2018-09-05T07:46:03.338Z,99.90
2018-09-05T07:48:32.434Z,99.90
2018-09-05T07:51:01.092Z,98.40
2018-09-05T07:53:29.916Z,99.90
2018-09-05T07:55:58.985Z,99.90
2018-09-05T07:58:29.052Z,99.90
2018-09-05T08:00:57.746Z,99.90
2018-09-05T08:03:27.629Z,99.90
2018-09-05T08:05:56.339Z,99.90
2018-09-05T08:08:27.524Z,99.90
2018-09-05T08:10:56.471Z,99.90
2018-09-05T08:13:26.283Z,99.90
2018-09-05T08:15:55.555Z,99.90
2018-09-05T08:18:24.377Z,99.90
2018-09-05T08:20:53.293Z,99.90
2018-09-05T08:23:22.641Z,99.90
2018-09-05T08:25:53.069Z,99.90
2018-09-05T08:28:22.765Z,99.90
2018-09-05T08:30:51.269Z,99.90
2018-09-05T08:33:20.305Z,99.90
2018-09-05T08:35:50.781Z,99.90
2018-09-05T08:38:19.147Z,99.90
2018-09-05T08:40:49.792Z,99.00
2018-09-05T08:43:19.106Z,98.70
2018-09-05T08:45:48.549Z,99.60
2018-09-05T08:48:17.562Z,99.90
2018-09-05T08:50:46.360Z,99.90
2018-09-05T08:53:16.976Z,99.90
2018-09-05T08:55:46.973Z,99.90
2018-09-05T08:58:15.760Z,99.90
2018-09-05T09:00:44.692Z,99.90
2018-09-05T09:03:14.245Z,99.90
2018-09-05T09:05:43.830Z,99.60
2018-09-05T09:08:14.019Z,99.60
2018-09-05T09:10:43.292Z,99.90
2018-09-05T09:13:12.362Z,99.70
2018-09-05T09:15:41.665Z,99.80
2018-09-05T09:18:10.342Z,99.90
2018-09-05T09:20:39.288Z,99.90
2018-09-05T09:23:08.256Z,98.90
2018-09-05T09:25:37.308Z,99.90
2018-09-05T09:28:06.313Z,99.90
2018-09-05T09:30:35.196Z,99.50
2018-09-05T09:33:04.275Z,97.80
2018-09-05T09:35:33.495Z,99.20
2018-09-05T09:38:02.335Z,99.10
2018-09-05T09:40:31.223Z,99.10
2018-09-05T09:43:01.271Z,99.90
2018-09-05T09:45:30.765Z,98.10
2018-09-05T09:48:00.477Z,99.40
2018-09-05T09:50:29.605Z,94.00
2018-09-05T09:52:58.540Z,93.90
2018-09-05T09:55:27.335Z,96.60
2018-09-05T09:57:57.328Z,97.90
2018-09-05T10:00:32.397Z,95.50
2018-09-05T10:03:07.577Z,98.90
2018-09-05T10:05:41.774Z,97.60
2018-09-05T10:08:16.998Z,96.90
2018-09-05T10:10:51.319Z,99.20
2018-09-05T10:13:26.772Z,99.20
2018-09-05T10:16:00.829Z,99.90
2018-09-05T10:18:31.822Z,99.10
2018-09-05T10:21:00.729Z,99.90
2018-09-05T10:23:33.397Z,99.70
2018-09-05T10:26:02.476Z,98.30
2018-09-05T10:28:31.572Z,97.30
2018-09-05T10:31:00.317Z,99.90
2018-09-05T10:33:31.801Z,99.90
2018-09-05T10:36:00.818Z,99.90
2018-09-05T10:38:30.041Z,99.90
2018-09-05T10:41:00.339Z,99.90
2018-09-05T10:43:30.363Z,99.90
2018-09-05T10:46:05.803Z,99.90
2018-09-05T10:48:34.703Z,99.90
2018-09-05T10:51:04.628Z,99.90
2018-09-05T10:53:33.389Z,99.90
2018-09-05T10:56:02.631Z,99.90
2018-09-05T10:58:31.933Z,99.90
2018-09-05T11:01:00.467Z,99.90
2018-09-05T11:03:29.643Z,99.90
2018-09-05T11:05:58.844Z,99.90
2018-09-05T11:08:28.108Z,99.90
2018-09-05T11:10:58.169Z,99.90
2018-09-05T11:13:27.834Z,99.90
2018-09-05T11:15:56.726Z,99.90
2018-09-05T11:18:26.993Z,99.90
2018-09-05T11:20:55.916Z,99.90
2018-09-05T11:23:25.202Z,99.90
2018-09-05T11:25:54.677Z,99.90
2018-09-05T11:28:24.082Z,99.90
2018-09-05T11:30:53.382Z,99.90
2018-09-05T11:33:23.063Z,99.90
2018-09-05T11:35:53.748Z,99.90
2018-09-05T11:38:23.616Z,99.90
2018-09-05T11:40:52.467Z,99.90
2018-09-05T11:43:22.625Z,99.90
2018-09-05T11:45:51.981Z,99.90
2018-09-05T11:48:22.486Z,99.90
2018-09-05T11:50:53.204Z,99.90
2018-09-05T11:53:22.129Z,99.90
2018-09-05T11:55:51.096Z,99.90
2018-09-05T11:58:24.188Z,99.90
2018-09-05T12:00:54.976Z,99.90
2018-09-05T12:03:24.605Z,99.90
2018-09-05T12:05:53.545Z,99.90
2018-09-05T12:08:23.756Z,99.90
2018-09-05T12:10:52.840Z,99.90
2018-09-05T12:13:22.684Z,99.90
2018-09-05T12:15:51.670Z,99.90
2018-09-05T12:18:22.043Z,99.90
2018-09-05T12:20:52.152Z,99.90
2018-09-05T12:23:22.451Z,99.90
2018-09-05T12:25:51.366Z,99.90
2018-09-05T12:28:20.379Z,99.90
2018-09-05T12:30:49.478Z,99.90
2018-09-05T12:33:18.401Z,99.90
2018-09-05T12:35:48.214Z,99.90
2018-09-05T12:38:17.049Z,99.90
2018-09-05T12:40:45.844Z,99.90
2018-09-05T12:43:17.039Z,99.90
2018-09-05T12:45:47.683Z,99.90
2018-09-05T12:48:16.444Z,99.90
2018-09-05T12:50:44.991Z,99.90
2018-09-05T12:53:13.671Z,99.90
2018-09-05T12:55:42.874Z,99.90
2018-09-05T12:58:11.771Z,99.90
2018-09-05T13:00:42.179Z,99.90
2018-09-05T13:03:11.209Z,99.90
2018-09-05T13:05:39.996Z,99.90
2018-09-05T13:08:09.197Z,99.90
2018-09-05T13:10:39.263Z,99.90
2018-09-05T13:13:08.242Z,99.90
2018-09-05T13:15:37.201Z,99.90
2018-09-05T13:18:05.815Z,99.90
2018-09-05T13:20:34.718Z,99.90
2018-09-05T13:23:04.051Z,99.90
2018-09-05T13:25:33.571Z,99.90
2018-09-05T13:28:03.059Z,99.90
2018-09-05T13:30:32.410Z,99.90
2018-09-05T13:33:05.648Z,99.90
2018-09-05T13:35:37.126Z,99.90
2018-09-05T13:38:06.122Z,99.90
2018-09-05T13:40:34.944Z,99.90
2018-09-05T13:43:05.460Z,99.90
2018-09-05T13:45:34.606Z,99.90
2018-09-05T13:48:04.892Z,99.90
2018-09-05T13:50:34.197Z,99.90
2018-09-05T13:53:03.907Z,99.90
2018-09-05T13:55:34.627Z,99.90
2018-09-05T13:58:03.764Z,99.90
2018-09-05T14:00:32.872Z,99.90
2018-09-05T14:03:01.883Z,99.90
2018-09-05T14:05:32.163Z,99.90
2018-09-05T14:08:00.779Z,99.90
2018-09-05T14:10:30.215Z,99.90
2018-09-05T14:13:00.716Z,99.90
2018-09-05T14:15:29.581Z,99.90
2018-09-05T14:17:59.225Z,99.90
2018-09-05T14:20:28.300Z,99.90
2018-09-05T14:22:57.098Z,99.90
2018-09-05T14:25:26.025Z,99.90
2018-09-05T14:27:56.326Z,99.90
2018-09-05T14:30:25.752Z,99.90
2018-09-05T14:32:55.210Z,99.90
2018-09-05T14:35:25.608Z,99.90
2018-09-05T14:37:55.164Z,99.90
2018-09-05T14:40:24.473Z,99.90
2018-09-05T14:42:55.738Z,99.90
2018-09-05T14:45:25.121Z,99.90
2018-09-05T14:47:54.162Z,99.90
2018-09-05T14:50:24.407Z,99.90
2018-09-05T14:52:53.654Z,99.90
2018-09-05T14:55:24.342Z,99.90
2018-09-05T14:57:54.410Z,99.90
2018-09-05T15:00:23.061Z,99.90
2018-09-05T15:02:52.440Z,99.90
2018-09-05T15:05:21.750Z,99.90
2018-09-05T15:07:51.416Z,99.90
2018-09-05T15:10:20.441Z,99.90
2018-09-05T15:12:49.514Z,99.90
2018-09-05T15:15:19.326Z,99.90
2018-09-05T15:17:48.736Z,99.90
2018-09-05T15:20:17.658Z,99.90
2018-09-05T15:22:46.667Z,99.90
2018-09-05T15:25:16.734Z,99.90
2018-09-05T15:27:45.690Z,99.90
2018-09-05T15:30:14.485Z,99.90
2018-09-05T15:32:43.702Z,99.90
2018-09-05T15:35:12.730Z,99.90
2018-09-05T15:37:41.566Z,99.90
2018-09-05T15:40:12.361Z,99.90
2018-09-05T15:42:41.771Z,99.90
2018-09-05T15:45:11.522Z,99.90
2018-09-05T15:47:40.681Z,99.90
2018-09-05T15:50:09.658Z,99.90
2018-09-05T15:52:38.198Z,99.90
2018-09-05T15:55:07.351Z,99.90
2018-09-05T15:57:38.053Z,99.90
2018-09-05T16:00:07.187Z,99.90
2018-09-05T16:02:36.629Z,99.90
2018-09-05T16:05:06.770Z,99.90
2018-09-05T16:07:35.453Z,99.90
2018-09-05T16:10:04.970Z,99.90
2018-09-05T16:12:35.216Z,99.90
2018-09-05T16:15:05.064Z,99.90
2018-09-05T16:17:34.231Z,99.90
2018-09-05T16:20:03.668Z,99.90
2018-09-05T16:22:33.061Z,99.90
2018-09-05T16:25:01.797Z,99.90
2018-09-05T16:27:30.887Z,99.90
2018-09-05T16:29:59.813Z,99.90
2018-09-05T16:32:28.715Z,99.90
2018-09-05T16:34:57.169Z,99.90
2018-09-05T16:37:26.395Z,99.90
2018-09-05T16:39:57.003Z,99.90
2018-09-05T16:42:27.150Z,99.90
2018-09-05T16:44:56.129Z,99.90
2018-09-05T16:47:25.412Z,99.90
2018-09-05T16:49:54.021Z,99.90
2018-09-05T16:52:27.726Z,99.90
2018-09-05T16:54:59.815Z,99.90
2018-09-05T16:57:28.644Z,99.90
2018-09-05T16:59:57.516Z,99.90
2018-09-05T17:02:27.348Z,99.90
2018-09-05T17:04:56.955Z,99.90
2018-09-05T17:07:26.402Z,99.90
2018-09-05T17:09:55.473Z,99.90
2018-09-05T17:12:24.483Z,99.90
2018-09-05T17:14:53.574Z,99.90
2018-09-05T17:17:24.703Z,99.90
2018-09-05T17:19:53.712Z,99.90
2018-09-05T17:22:23.027Z,99.90
2018-09-05T17:24:51.984Z,99.90
2018-09-05T17:27:21.581Z,99.90
2018-09-05T17:29:52.183Z,99.90
2018-09-05T17:32:21.353Z,99.90
2018-09-05T17:34:50.651Z,99.90
2018-09-05T17:37:20.197Z,99.90
2018-09-05T17:39:48.939Z,99.90
2018-09-05T17:42:18.008Z,99.90
2018-09-05T17:44:46.695Z,99.90
2018-09-05T17:47:15.471Z,99.90
2018-09-05T17:49:44.569Z,99.90
2018-09-05T17:52:13.468Z,99.90
2018-09-05T17:54:42.257Z,99.90
2018-09-05T17:57:11.366Z,99.90
2018-09-05T17:59:39.877Z,99.90
2018-09-05T18:02:08.965Z,99.90
2018-09-05T18:04:38.034Z,99.90
2018-09-05T18:07:07.634Z,99.90
2018-09-05T18:09:38.851Z,99.90
2018-09-05T18:12:07.764Z,99.90
2018-09-05T18:14:37.147Z,99.90
2018-09-05T18:17:09.343Z,99.90
2018-09-05T18:19:39.771Z,99.90
2018-09-05T18:22:08.535Z,99.90
2018-09-05T18:24:37.315Z,99.90
2018-09-05T18:27:06.434Z,99.90
2018-09-05T18:29:35.518Z,99.90
2018-09-05T18:32:04.676Z,99.90
2018-09-05T18:34:34.410Z,99.90
2018-09-05T18:37:03.446Z,99.90
2018-09-05T18:39:33.447Z,99.90
2018-09-05T18:42:02.757Z,99.90
2018-09-05T18:44:31.751Z,99.90
2018-09-05T18:47:00.527Z,99.90
2018-09-05T18:49:29.810Z,99.90
2018-09-05T18:52:00.282Z,99.90
2018-09-05T18:54:29.479Z,99.90
2018-09-05T18:56:58.870Z,99.90
2018-09-05T18:59:27.725Z,99.90
2018-09-05T19:01:57.514Z,99.90
2018-09-05T19:04:28.213Z,99.90
2018-09-05T19:06:57.880Z,99.90
2018-09-05T19:09:27.152Z,99.90
2018-09-05T19:11:57.101Z,99.90
2018-09-05T19:17:22.841Z,99.90
2018-09-05T19:19:51.759Z,99.90
2018-09-05T19:22:20.687Z,99.90
2018-09-05T19:24:49.714Z,99.90
2018-09-05T19:27:18.225Z,99.90
2018-09-05T19:29:47.147Z,99.90
2018-09-05T19:32:17.061Z,99.90
2018-09-05T19:34:47.037Z,99.90
2018-09-05T19:37:16.003Z,99.90
2018-09-05T19:39:44.979Z,99.90
2018-09-05T19:42:14.787Z,99.90
2018-09-05T19:44:43.374Z,99.90
2018-09-05T19:47:12.866Z,99.90
2018-09-05T19:49:42.365Z,99.90
2018-09-05T19:52:11.849Z,99.90
2018-09-05T19:54:40.561Z,99.90
2018-09-05T19:57:11.299Z,99.90
2018-09-05T19:59:39.912Z,99.90
2018-09-05T20:02:08.917Z,99.90
2018-09-05T20:04:41.269Z,99.90
2018-09-05T20:07:11.089Z,99.90
2018-09-05T20:09:39.809Z,99.90
2018-09-05T20:12:10.128Z,99.90
2018-09-05T20:14:39.428Z,99.90
2018-09-05T20:17:08.585Z,99.90
2018-09-05T20:19:37.512Z,99.90
2018-09-05T20:22:08.876Z,99.90
2018-09-05T20:24:39.588Z,99.90
2018-09-05T20:27:09.149Z,99.90
2018-09-05T20:29:37.906Z,99.90
2018-09-05T20:32:08.270Z,99.90
2018-09-05T20:34:37.299Z,99.90
2018-09-05T20:37:06.037Z,99.90
2018-09-05T20:39:35.288Z,99.90
2018-09-05T20:42:05.918Z,99.90
2018-09-05T20:44:36.078Z,99.90
2018-09-05T20:47:05.044Z,99.90
2018-09-05T20:49:34.146Z,99.90
2018-09-05T20:52:03.842Z,99.90
2018-09-05T20:54:33.281Z,99.90
2018-09-05T20:57:02.109Z,99.90
2018-09-05T20:59:31.097Z,99.90
2018-09-05T21:02:00.048Z,99.90
2018-09-05T21:04:28.966Z,99.90
2018-09-05T21:06:58.757Z,99.90
2018-09-05T21:09:29.117Z,99.90
2018-09-05T21:11:59.987Z,99.90
2018-09-05T21:14:29.038Z,99.90
2018-09-05T21:16:58.390Z,99.90
2018-09-05T21:19:27.332Z,99.90
2018-09-05T21:21:56.188Z,99.90
2018-09-05T21:24:25.852Z,99.90
2018-09-05T21:26:54.809Z,99.90
2018-09-05T21:29:24.223Z,99.90
2018-09-05T21:31:54.695Z,99.90
2018-09-05T21:34:24.560Z,99.90
2018-09-05T21:36:54.083Z,99.90
2018-09-05T21:39:23.277Z,99.90
2018-09-05T21:41:52.441Z,99.90
2018-09-05T21:44:21.281Z,99.90
2018-09-05T21:46:51.103Z,99.90
2018-09-05T21:49:20.413Z,99.90
2018-09-05T21:51:49.151Z,99.90
